createdAt,value
2019-04-03T00:00:13.058Z,8.90
2019-04-03T00:02:41.463Z,8.50
2019-04-03T00:05:10.036Z,8.18
2019-04-03T00:07:38.471Z,9.65
2019-04-03T00:10:07.694Z,9.60
2019-04-03T00:12:36.574Z,8.53
2019-04-03T00:15:06.359Z,8.65
2019-04-03T00:17:34.781Z,9.30
2019-04-03T00:20:04.938Z,8.60
2019-04-03T00:22:33.375Z,9.18
2019-04-03T00:25:01.799Z,8.45
2019-04-03T00:27:30.222Z,7.87
2019-04-03T00:29:58.647Z,8.10
2019-04-03T00:32:27.056Z,8.68
2019-04-03T00:34:55.747Z,8.68
2019-04-03T00:37:24.166Z,8.83
2019-04-03T00:39:54.513Z,8.20
2019-04-03T00:42:24.567Z,8.10
2019-04-03T00:44:54.682Z,8.80
2019-04-03T00:47:25.074Z,8.35
2019-04-03T00:49:56.197Z,8.40
2019-04-03T00:52:23.690Z,8.13
2019-04-03T00:54:52.126Z,7.87
2019-04-03T00:57:20.579Z,8.25
2019-04-03T00:59:49.061Z,7.78
2019-04-03T01:02:17.556Z,7.67
2019-04-03T01:04:45.966Z,6.93
2019-04-03T01:07:14.361Z,7.53
2019-04-03T01:09:42.803Z,7.20
2019-04-03T01:12:23.300Z,6.47
2019-04-03T03:08:42.650Z,2.55
2019-04-03T03:11:12.304Z,2.50
2019-04-03T03:13:41.115Z,2.15
2019-04-03T03:16:10.001Z,2.17
2019-04-03T03:18:38.476Z,2.30
2019-04-03T03:21:12.027Z,2.17
2019-04-03T03:23:38.322Z,2.45
2019-04-03T03:26:07.375Z,2.15
2019-04-03T03:28:36.125Z,2.00
2019-04-03T03:31:07.286Z,1.82
2019-04-03T03:33:38.742Z,2.00
2019-04-03T03:36:05.826Z,2.07
2019-04-03T03:38:38.228Z,2.12
2019-04-03T03:41:05.563Z,2.07
2019-04-03T03:43:38.201Z,1.75
2019-04-03T03:46:05.442Z,2.10
2019-04-03T03:48:34.445Z,1.90
2019-04-03T03:51:04.454Z,1.83
2019-04-03T03:53:33.738Z,1.80
2019-04-03T03:56:02.500Z,1.77
2019-04-03T03:58:31.459Z,1.98
2019-04-03T04:01:01.011Z,2.10
2019-04-03T04:03:29.868Z,2.40
2019-04-03T04:05:58.268Z,2.10
2019-04-03T04:08:27.902Z,2.20
2019-04-03T04:10:59.451Z,1.90
2019-04-03T04:13:27.055Z,1.80
2019-04-03T04:15:56.522Z,2.30
2019-04-03T04:18:25.137Z,2.40
2019-04-03T04:20:53.686Z,2.00
2019-04-03T04:23:24.760Z,2.02
2019-04-03T04:25:53.579Z,2.25
2019-04-03T04:28:22.757Z,2.10
2019-04-03T04:30:51.875Z,1.87
2019-04-03T04:33:20.276Z,1.98
2019-04-03T04:35:51.901Z,2.12
2019-04-03T04:38:18.891Z,1.90
2019-04-03T04:40:47.329Z,2.20
2019-04-03T04:43:15.737Z,2.20
2019-04-03T04:45:44.341Z,1.85
2019-04-03T04:48:15.594Z,2.37
2019-04-03T04:50:42.999Z,2.20
2019-04-03T04:53:11.476Z,1.90
2019-04-03T04:55:39.950Z,2.37
2019-04-03T04:58:11.546Z,2.20
2019-04-03T05:00:39.726Z,2.40
2019-04-03T05:03:08.156Z,2.40
2019-04-03T05:05:36.651Z,1.92
2019-04-03T05:08:05.275Z,2.00
2019-04-03T05:10:36.424Z,2.02
2019-04-03T05:13:04.025Z,2.43
2019-04-03T05:15:32.421Z,2.00
2019-04-03T05:18:00.908Z,2.40
2019-04-03T05:20:29.665Z,2.15
2019-04-03T05:22:58.143Z,2.30
2019-04-03T05:25:27.894Z,2.25
2019-04-03T05:27:56.688Z,2.37
2019-04-03T05:30:32.860Z,2.30
2019-04-03T05:33:01.245Z,2.20
2019-04-03T05:35:29.972Z,2.20
2019-04-03T05:37:58.563Z,2.58
2019-04-03T05:40:27.083Z,2.58
2019-04-03T05:42:55.567Z,2.90
2019-04-03T05:45:23.955Z,2.52
2019-04-03T05:47:52.384Z,2.40
2019-04-03T05:50:20.778Z,2.55
2019-04-03T05:52:49.416Z,2.90
2019-04-03T05:55:17.852Z,2.83
2019-04-03T05:57:46.295Z,3.00
2019-04-03T06:00:15.045Z,2.77
2019-04-03T06:02:43.508Z,2.85
2019-04-03T06:05:13.492Z,2.98
2019-04-03T06:07:42.028Z,3.05
2019-04-03T06:10:10.729Z,2.90
2019-04-03T06:12:59.698Z,2.62
2019-04-03T06:15:28.358Z,3.10
2019-04-03T06:17:56.826Z,3.10
2019-04-03T06:20:25.282Z,3.30
2019-04-03T06:23:13.187Z,3.30
2019-04-03T06:25:41.637Z,3.17
2019-04-03T06:28:12.689Z,3.45
2019-04-03T06:30:40.522Z,3.33
2019-04-03T06:33:08.930Z,3.33
2019-04-03T06:35:38.121Z,3.40
2019-04-03T06:38:06.551Z,3.77
2019-04-03T06:40:35.540Z,3.83
2019-04-03T06:43:04.866Z,4.28
2019-04-03T06:45:33.295Z,4.00
2019-04-03T06:48:04.239Z,3.90
2019-04-03T06:50:32.170Z,3.90
2019-04-03T06:53:00.623Z,3.62
2019-04-03T06:55:29.071Z,4.28
2019-04-03T06:57:57.802Z,4.30
2019-04-03T07:00:26.216Z,3.95
2019-04-03T07:02:54.642Z,4.40
2019-04-03T07:05:23.113Z,4.92
2019-04-03T07:07:51.539Z,5.33
2019-04-03T07:10:25.800Z,5.35
2019-04-03T07:12:50.089Z,5.40
2019-04-03T07:15:18.747Z,5.60
2019-04-03T07:17:47.728Z,5.35
2019-04-03T07:20:19.729Z,6.03
2019-04-03T07:22:46.909Z,6.43
2019-04-03T07:25:15.709Z,5.67
2019-04-03T07:27:44.110Z,6.00
2019-04-03T07:30:16.806Z,5.65
2019-04-03T07:32:44.843Z,5.55
2019-04-03T07:35:13.384Z,5.70
2019-04-03T07:37:41.811Z,6.20
2019-04-03T07:40:10.648Z,6.92
2019-04-03T07:42:39.069Z,6.25
2019-04-03T07:45:09.005Z,6.67
2019-04-03T07:47:37.737Z,6.67
2019-04-03T07:50:10.311Z,6.72
2019-04-03T07:52:37.632Z,6.80
2019-04-03T07:55:06.777Z,6.80
2019-04-03T07:57:36.675Z,7.60
2019-04-03T08:00:08.869Z,6.92
2019-04-03T08:02:37.683Z,7.08
2019-04-03T08:05:08.241Z,7.60
2019-04-03T08:07:37.298Z,7.37
2019-04-03T08:10:06.803Z,8.25
2019-04-03T08:12:35.920Z,8.30
2019-04-03T08:15:07.634Z,8.30
2019-04-03T08:17:36.043Z,8.35
2019-04-03T08:20:06.604Z,8.70
2019-04-03T08:22:35.775Z,8.30
2019-04-03T08:25:06.742Z,8.48
2019-04-03T08:27:35.249Z,8.13
2019-04-03T08:30:07.327Z,8.58
2019-04-03T08:32:35.733Z,8.93
2019-04-03T08:35:19.315Z,7.65
2019-04-03T08:37:40.661Z,8.40
2019-04-03T08:40:08.497Z,8.25
2019-04-03T08:42:37.723Z,9.05
2019-04-03T08:45:08.865Z,8.43
2019-04-03T08:47:37.727Z,8.43
2019-04-03T08:50:10.476Z,8.80
2019-04-03T08:52:39.237Z,8.98
2019-04-03T08:55:08.482Z,9.20
2019-04-03T08:57:37.165Z,8.48
2019-04-03T09:00:07.531Z,9.28
2019-04-03T09:02:36.134Z,10.45
2019-04-03T09:05:07.087Z,9.63
2019-04-03T09:07:35.958Z,9.30
2019-04-03T09:10:07.051Z,9.35
2019-04-03T09:12:37.497Z,9.30
2019-04-03T09:15:08.294Z,9.87
2019-04-03T09:17:36.955Z,9.08
2019-04-03T09:20:06.005Z,8.55
2019-04-03T09:22:34.425Z,8.20
2019-04-03T09:25:03.104Z,8.38
2019-04-03T09:27:31.576Z,9.40
2019-04-03T09:30:00.642Z,7.87
2019-04-03T09:32:29.053Z,7.87
2019-04-03T09:34:59.091Z,6.00
2019-04-03T09:37:27.951Z,7.23
2019-04-03T09:39:56.374Z,6.27
2019-04-03T09:42:24.836Z,6.58
2019-04-03T09:44:53.714Z,5.47
2019-04-03T09:47:25.027Z,5.17
2019-04-03T09:49:53.576Z,5.55
2019-04-03T09:52:23.552Z,5.50
2019-04-03T09:54:52.853Z,4.73
2019-04-03T09:57:21.682Z,4.90
2019-04-03T09:59:50.122Z,4.90
2019-04-03T10:02:19.632Z,4.37
2019-04-03T10:04:49.201Z,4.27
2019-04-03T10:07:38.618Z,4.00
2019-04-03T10:10:08.463Z,4.37
2019-04-03T10:12:36.926Z,4.05
2019-04-03T10:15:08.822Z,3.67
2019-04-03T10:17:38.520Z,4.00
2019-04-03T10:20:09.059Z,4.33
2019-04-03T10:22:37.798Z,3.87
2019-04-03T10:25:08.781Z,3.85
2019-04-03T10:27:37.221Z,3.87
2019-04-03T10:30:11.416Z,3.65
2019-04-03T10:32:39.854Z,3.77
2019-04-03T10:35:09.201Z,4.30
2019-04-03T10:37:38.021Z,4.37
2019-04-03T10:40:10.224Z,4.53
2019-04-03T10:42:38.714Z,4.08
2019-04-03T10:45:09.218Z,4.00
2019-04-03T10:47:42.056Z,4.27
2019-04-03T10:50:08.629Z,3.87
2019-04-03T10:52:37.059Z,4.83
2019-04-03T10:55:07.033Z,4.00
2019-04-03T10:57:35.794Z,6.75
2019-04-03T11:00:10.612Z,4.12
2019-04-03T11:02:39.126Z,4.05
2019-04-03T11:05:08.979Z,3.35
2019-04-03T11:07:37.467Z,2.67
2019-04-03T11:10:08.141Z,2.98
2019-04-03T11:12:36.575Z,2.80
2019-04-03T11:15:11.531Z,2.98
2019-04-03T11:17:39.001Z,2.83
2019-04-03T11:20:09.693Z,2.75
2019-04-03T11:22:41.674Z,2.67
2019-04-03T11:25:14.003Z,2.65
2019-04-03T11:27:44.055Z,2.70
2019-04-03T11:30:17.023Z,2.30
2019-04-03T11:32:44.000Z,2.80
2019-04-03T11:35:14.292Z,2.98
2019-04-03T11:37:42.793Z,2.50
2019-04-03T11:40:12.830Z,2.55
2019-04-03T11:42:41.337Z,2.73
2019-04-03T11:45:11.836Z,2.70
2019-04-03T11:47:40.630Z,2.70
2019-04-03T11:50:10.128Z,3.02
2019-04-03T11:52:38.989Z,3.03
2019-04-03T11:55:10.088Z,3.00
2019-04-03T11:57:37.999Z,2.77
2019-04-03T12:00:13.350Z,2.77
2019-04-03T12:02:44.467Z,2.80
2019-04-03T12:05:20.196Z,3.17
2019-04-03T12:07:47.082Z,3.02
2019-04-03T12:10:16.002Z,2.90
2019-04-03T12:12:44.769Z,3.10
2019-04-03T12:15:16.273Z,3.30
2019-04-03T12:17:44.279Z,3.60
2019-04-03T12:20:15.408Z,3.08
2019-04-03T12:22:44.316Z,3.45
2019-04-03T12:25:14.122Z,3.40
2019-04-03T12:27:44.998Z,3.17
2019-04-03T12:30:13.178Z,3.40
2019-04-03T12:32:47.320Z,2.77
2019-04-03T12:35:13.235Z,3.15
2019-04-03T12:37:41.984Z,3.12
2019-04-03T12:40:11.535Z,3.12
2019-04-03T12:42:40.181Z,3.17
2019-04-03T12:45:09.040Z,3.13
2019-04-03T12:47:38.182Z,3.12
2019-04-03T12:50:08.542Z,3.63
2019-04-03T12:52:37.128Z,3.67
2019-04-03T12:55:07.751Z,3.45
2019-04-03T12:57:38.964Z,3.67
2019-04-03T13:00:12.546Z,3.60
2019-04-03T13:02:41.314Z,3.70
2019-04-03T13:05:10.494Z,3.40
2019-04-03T13:07:39.462Z,3.65
2019-04-03T13:10:09.191Z,3.45
2019-04-03T13:12:38.023Z,3.20
2019-04-03T13:15:09.794Z,3.92
2019-04-03T13:17:38.350Z,3.30
2019-04-03T13:20:08.575Z,3.50
2019-04-03T13:22:37.060Z,3.60
2019-04-03T13:25:06.923Z,3.77
2019-04-03T13:27:35.407Z,3.17
2019-04-03T13:30:06.336Z,3.60
2019-04-03T13:32:34.977Z,3.50
2019-04-03T13:35:05.886Z,3.75
2019-04-03T13:37:35.134Z,3.92
2019-04-03T13:40:07.035Z,3.98
2019-04-03T13:42:35.880Z,3.60
2019-04-03T13:45:09.743Z,3.40
2019-04-03T13:47:42.045Z,3.80
2019-04-03T13:50:10.821Z,3.70
2019-04-03T13:52:43.271Z,3.10
2019-04-03T13:55:09.817Z,3.52
2019-04-03T13:57:38.615Z,3.62
2019-04-03T14:00:18.330Z,3.50
2019-04-03T14:02:39.670Z,4.00
2019-04-03T14:05:09.688Z,3.45
2019-04-03T14:07:41.551Z,3.42
2019-04-03T14:10:10.978Z,4.05
2019-04-03T14:12:43.571Z,3.73
2019-04-03T14:15:09.858Z,3.70
2019-04-03T14:17:38.496Z,3.77
2019-04-03T14:20:08.686Z,4.03
2019-04-03T14:22:37.387Z,3.50
2019-04-03T14:25:17.873Z,3.50
2019-04-03T14:27:37.488Z,3.35
2019-04-03T14:30:11.142Z,3.30
2019-04-03T14:32:39.449Z,3.40
2019-04-03T14:35:40.453Z,3.10
2019-04-03T14:37:39.790Z,3.17
2019-04-03T14:40:11.131Z,3.30
2019-04-03T14:42:38.998Z,3.10
2019-04-03T14:45:09.231Z,3.50
2019-04-03T14:47:37.646Z,2.75
2019-04-03T14:50:07.361Z,2.90
2019-04-03T14:52:36.366Z,3.12
2019-04-03T14:55:17.204Z,2.80
2019-04-03T14:57:37.215Z,3.30
2019-04-03T15:00:23.458Z,2.83
2019-04-03T15:02:40.216Z,3.08
2019-04-03T15:05:09.446Z,3.70
2019-04-03T15:07:37.861Z,3.35
2019-04-03T15:10:07.772Z,3.10
2019-04-03T15:12:38.805Z,3.10
2019-04-03T15:15:06.987Z,3.22
2019-04-03T15:17:37.210Z,3.60
2019-04-03T15:20:09.747Z,3.62
2019-04-03T15:22:39.434Z,3.20
2019-04-03T15:25:08.877Z,3.00
2019-04-03T15:27:37.417Z,4.80
2019-04-03T15:30:10.965Z,3.87
2019-04-03T15:32:40.157Z,3.45
2019-04-03T15:35:09.140Z,3.08
2019-04-03T15:37:40.081Z,2.90
2019-04-03T15:40:09.208Z,2.80
2019-04-03T15:42:39.788Z,2.90
2019-04-03T15:45:10.233Z,2.98
2019-04-03T15:47:44.117Z,3.23
2019-04-03T15:50:09.751Z,3.22
2019-04-03T15:52:38.728Z,2.55
2019-04-03T15:55:08.442Z,2.90
2019-04-03T15:57:39.755Z,3.10
2019-04-03T16:00:10.197Z,2.90
2019-04-03T16:02:39.196Z,2.70
2019-04-03T16:05:07.775Z,2.75
2019-04-03T16:07:40.445Z,2.80
2019-04-03T16:10:09.354Z,2.60
2019-04-03T16:12:41.553Z,2.80
2019-04-03T16:15:09.604Z,2.92
2019-04-03T16:17:39.121Z,2.40
2019-04-03T16:20:09.176Z,2.98
2019-04-03T16:22:38.082Z,2.10
2019-04-03T16:25:08.036Z,2.20
2019-04-03T16:27:36.608Z,2.20
2019-04-03T16:30:08.366Z,2.30
2019-04-03T16:32:36.748Z,2.25
2019-04-03T16:35:08.865Z,2.45
2019-04-03T16:37:37.484Z,2.30
2019-04-03T16:40:10.053Z,2.20
2019-04-03T16:42:38.625Z,2.15
2019-04-03T16:45:28.448Z,2.30
2019-04-03T16:47:56.893Z,2.27
2019-04-03T16:50:27.288Z,2.30
2019-04-03T16:52:55.674Z,2.15
2019-04-03T16:55:24.462Z,2.27
2019-04-03T16:57:54.318Z,2.20
2019-04-03T17:00:23.376Z,2.43
2019-04-03T17:02:51.951Z,2.10
2019-04-03T17:05:20.885Z,2.10
2019-04-03T17:07:51.191Z,2.35
2019-04-03T17:10:19.544Z,2.12
2019-04-03T17:12:50.079Z,1.98
2019-04-03T17:15:18.964Z,2.10
2019-04-03T17:17:47.921Z,2.22
2019-04-03T17:20:16.406Z,2.00
2019-04-03T17:22:46.755Z,2.05
2019-04-03T17:25:15.478Z,2.30
2019-04-03T17:27:54.398Z,2.42
2019-04-03T17:30:16.269Z,2.90
2019-04-03T17:32:44.687Z,2.57
2019-04-03T17:35:14.114Z,3.00
2019-04-03T17:37:43.525Z,4.60
2019-04-03T17:40:13.164Z,6.30
2019-04-03T17:42:41.609Z,3.77
2019-04-03T17:45:10.226Z,6.60
2019-04-03T17:47:38.644Z,7.17
2019-04-03T17:50:08.013Z,8.33
2019-04-03T17:52:37.064Z,4.00
2019-04-03T17:55:10.103Z,3.70
2019-04-03T17:57:39.128Z,3.45
2019-04-03T18:00:13.456Z,3.60
2019-04-03T18:02:41.910Z,3.62
2019-04-03T18:05:10.832Z,3.67
2019-04-03T18:07:39.249Z,3.62
2019-04-03T18:10:12.431Z,3.52
2019-04-03T18:12:39.045Z,3.33
2019-04-03T18:15:09.358Z,3.45
2019-04-03T18:17:37.867Z,3.50
2019-04-03T18:20:08.009Z,3.60
2019-04-03T18:22:36.435Z,3.58
2019-04-03T18:25:08.262Z,3.55
2019-04-03T18:27:37.041Z,3.58
2019-04-03T18:30:11.899Z,3.55
2019-04-03T18:32:39.818Z,3.77
2019-04-03T18:35:09.066Z,3.73
2019-04-03T18:37:40.485Z,2.95
2019-04-03T18:40:09.471Z,3.10
2019-04-03T18:42:37.897Z,3.80
2019-04-03T18:45:07.001Z,3.50
2019-04-03T18:47:41.232Z,3.90
2019-04-03T18:50:09.742Z,3.37
2019-04-03T18:52:38.856Z,3.58
2019-04-03T18:55:07.681Z,4.00
2019-04-03T18:57:41.720Z,4.08
2019-04-03T19:00:10.695Z,4.42
2019-04-03T19:02:39.108Z,4.58
2019-04-03T19:05:13.731Z,5.12
2019-04-03T19:07:40.691Z,5.37
2019-04-03T19:10:10.481Z,4.92
2019-04-03T19:12:38.895Z,5.00
2019-04-03T19:15:08.076Z,4.75
2019-04-03T19:17:36.542Z,4.90
2019-04-03T19:20:10.706Z,5.03
2019-04-03T19:22:40.065Z,5.20
2019-04-03T19:25:08.842Z,5.75
2019-04-03T19:27:37.230Z,5.28
2019-04-03T19:30:07.630Z,6.20
2019-04-03T19:32:39.291Z,6.30
2019-04-03T19:37:37.932Z,6.30
2019-04-03T19:40:09.731Z,6.12
2019-04-03T19:45:07.748Z,7.15
2019-04-03T19:47:36.173Z,7.73
2019-04-03T19:50:07.689Z,8.10
2019-04-03T19:52:37.438Z,7.25
2019-04-03T19:55:07.446Z,8.03
2019-04-03T19:57:36.137Z,7.22
2019-04-03T20:00:07.268Z,7.42
2019-04-03T20:02:38.079Z,7.65
2019-04-03T20:05:06.675Z,8.10
2019-04-03T20:07:35.125Z,7.40
2019-04-03T20:10:04.927Z,7.05
2019-04-03T20:12:33.342Z,7.40
2019-04-03T20:15:02.350Z,7.53
2019-04-03T20:17:31.082Z,8.05
2019-04-03T20:19:59.486Z,7.42
2019-04-03T20:22:27.902Z,7.17
2019-04-03T20:25:00.049Z,7.10
2019-04-03T20:27:26.555Z,8.10
2019-04-03T20:29:54.983Z,7.75
2019-04-03T20:32:23.410Z,7.50
2019-04-03T20:34:52.157Z,7.97
2019-04-03T20:37:20.625Z,7.50
2019-04-03T20:39:49.034Z,7.30
2019-04-03T20:42:17.625Z,7.58
2019-04-03T20:44:48.132Z,7.50
2019-04-03T20:47:16.246Z,8.25
2019-04-03T20:49:45.350Z,7.00
2019-04-03T20:52:13.756Z,7.95
2019-04-03T20:54:42.179Z,7.57
2019-04-03T20:57:13.375Z,7.70
2019-04-03T20:59:42.718Z,7.05
2019-04-03T21:02:10.989Z,6.37
2019-04-03T21:04:39.447Z,7.22
2019-04-03T21:07:07.851Z,7.03
2019-04-03T21:09:36.263Z,6.37
2019-04-03T21:12:05.100Z,6.80
2019-04-03T21:14:34.117Z,6.70
2019-04-03T21:17:02.618Z,5.97
2019-04-03T21:19:31.025Z,6.65
2019-04-03T21:22:00.351Z,6.50
2019-04-03T21:24:29.008Z,5.87
2019-04-03T21:26:57.409Z,6.72
2019-04-03T21:29:25.819Z,7.00
2019-04-03T21:31:56.425Z,6.87
2019-04-03T21:34:24.401Z,6.80
2019-04-03T21:36:52.895Z,6.83
2019-04-03T21:39:21.390Z,7.12
2019-04-03T21:41:49.793Z,7.15
2019-04-03T21:44:18.232Z,7.10
2019-04-03T21:46:46.637Z,7.47
2019-04-03T21:49:16.795Z,8.65
2019-04-03T21:51:45.696Z,8.40
2019-04-03T21:54:14.105Z,7.80
2019-04-03T21:56:42.505Z,7.60
2019-04-03T21:59:11.424Z,8.03
2019-04-03T22:01:40.232Z,7.95
2019-04-03T22:04:08.660Z,7.87
2019-04-03T22:06:37.117Z,7.97
2019-04-03T22:09:08.677Z,8.50
2019-04-03T22:11:37.149Z,8.00
2019-04-03T22:14:05.925Z,8.28
2019-04-03T22:16:34.724Z,7.78
2019-04-03T22:19:03.286Z,7.25
2019-04-03T22:21:32.501Z,8.33
2019-04-03T22:24:01.381Z,7.15
2019-04-03T22:26:29.780Z,7.20
2019-04-03T22:28:58.232Z,8.18
2019-04-03T22:31:27.084Z,8.23
2019-04-03T22:33:58.900Z,7.72
2019-04-03T22:36:27.949Z,7.35
2019-04-03T22:38:56.417Z,7.65
2019-04-03T22:41:24.799Z,7.58
2019-04-03T22:43:54.135Z,7.67
2019-04-03T22:46:22.655Z,8.80
2019-04-03T22:48:51.087Z,9.15
2019-04-03T22:51:19.513Z,9.78
2019-04-03T22:53:47.912Z,9.00
2019-04-03T22:56:16.864Z,8.73
2019-04-03T22:58:45.910Z,8.50
2019-04-03T23:01:14.497Z,8.43
2019-04-03T23:03:42.895Z,8.83
2019-04-03T23:06:11.349Z,8.43
2019-04-03T23:08:39.819Z,8.33
2019-04-03T23:11:08.285Z,8.68
2019-04-03T23:13:36.923Z,8.55
2019-04-03T23:16:05.354Z,9.53
2019-04-03T23:18:33.763Z,8.30
2019-04-03T23:21:02.466Z,8.50
2019-04-03T23:23:30.868Z,8.40
2019-04-03T23:26:00.842Z,7.92
2019-04-03T23:28:29.425Z,9.30
2019-04-03T23:30:57.853Z,8.33
2019-04-03T23:33:26.248Z,8.00
2019-04-03T23:35:54.928Z,8.05
2019-04-03T23:38:24.802Z,8.75
2019-04-03T23:40:53.513Z,7.72
2019-04-03T23:43:21.930Z,7.83
2019-04-03T23:45:50.397Z,8.13
2019-04-03T23:48:18.826Z,7.87
2019-04-03T23:50:47.235Z,7.62
2019-04-03T23:53:15.640Z,6.87
2019-04-03T23:55:44.058Z,7.53
2019-04-03T23:58:12.460Z,7.22
